Time;durP1;ratioP1;P1;durP2;ratioP2;P2;SDS_P1;SDS_P2;PMS_P1;PMS_P2;Temp;Humidity;BMP_temperature;BMP_pressure;BME280_temperature;BME280_humidity;BME280_pressure;Samples;Min_cycle;Max_cycle;Signal;HPM_P1;HPM_P2
2022/09/07 00:00:32;;;;;;;6.53;3.47;;;;;;;16.26;nan;95513.13;5029945;28;20229;-67
2022/09/07 00:03:00;;;;;;;8.27;3.53;;;;;;;16.17;nan;95505.88;5030090;28;20222;-69
2022/09/07 00:05:28;;;;;;;6.88;3.47;;;;;;;16.23;nan;95510.72;5031410;28;20209;-68
2022/09/07 00:07:55;;;;;;;3.95;3.75;;;;;;;16.24;nan;95512.38;5030950;28;20301;-71
2022/09/07 00:10:22;;;;;;;8.20;3.78;;;;;;;16.26;nan;95509.72;5031984;28;20260;-69
2022/09/07 00:12:49;;;;;;;3.40;3.20;;;;;;;16.45;nan;95517.34;5031193;28;20272;-69
2022/09/07 00:15:17;;;;;;;4.00;3.80;;;;;;;16.34;nan;95516.13;5031337;28;20234;-68
2022/09/07 00:17:44;;;;;;;6.88;3.22;;;;;;;16.32;nan;95510.28;5031516;28;20279;-68
2022/09/07 00:20:13;;;;;;;3.58;3.22;;;;;;;16.55;nan;95506.56;5027899;28;20203;-69
2022/09/07 00:22:40;;;;;;;3.20;3.00;;;;;;;16.69;nan;95523.84;5032059;28;20213;-71
2022/09/07 00:25:08;;;;;;;4.57;3.67;;;;;;;16.73;nan;95509.97;5029098;28;20194;-72
2022/09/07 00:27:35;;;;;;;3.10;2.90;;;;;;;16.91;nan;95519.28;5031434;28;20211;-68
2022/09/07 00:30:01;;;;;;;3.55;3.33;;;;;;;16.80;nan;95513.06;5032307;28;21397;-70
2022/09/07 00:32:28;;;;;;;3.00;2.90;;;;;;;17.00;nan;95513.69;5030124;28;20261;-68
2022/09/07 00:34:55;;;;;;;4.10;3.70;;;;;;;16.89;nan;95515.97;5032434;28;20217;-69
2022/09/07 00:37:23;;;;;;;3.60;3.40;;;;;;;16.97;nan;95518.16;5034514;28;20679;-69
2022/09/07 00:39:50;;;;;;;2.97;2.80;;;;;;;17.14;nan;95510.41;5033819;28;20645;-68
2022/09/07 00:42:19;;;;;;;3.55;3.25;;;;;;;17.17;nan;95520.53;5029214;28;21177;-68
2022/09/07 00:45:14;;;;;;;2.72;2.63;;;;;;;17.15;nan;95517.19;5029020;28;20286;-68
2022/09/07 00:47:47;;;;;;;3.97;2.75;;;;;;;17.07;nan;95514.22;5030684;28;20203;-67
2022/09/07 00:50:25;;;;;;;3.05;2.85;;;;;;;16.68;nan;95511.94;5028474;28;20625;-69
2022/09/07 00:52:58;;;;;;;2.95;2.80;;;;;;;16.61;nan;95511.38;5027368;28;20300;-68
2022/09/07 00:55:26;;;;;;;3.28;3.05;;;;;;;16.48;nan;95510.34;5027619;28;20701;-69
2022/09/07 00:57:55;;;;;;;7.82;2.90;;;;;;;16.55;nan;95505.75;5030458;28;20670;-69
2022/09/07 01:00:22;;;;;;;2.65;2.50;;;;;;;16.47;nan;95502.72;5026997;28;20627;-68
2022/09/07 01:02:51;;;;;;;6.47;2.78;;;;;;;16.60;nan;95511.44;5031613;28;20195;-68
2022/09/07 01:05:24;;;;;;;4.45;3.33;;;;;;;16.41;nan;95508.97;5031788;28;20206;-69
2022/09/07 01:07:55;;;;;;;2.88;2.67;;;;;;;16.42;nan;95509.81;5029674;28;20992;-69
2022/09/07 01:10:24;;;;;;;3.42;2.53;;;;;;;16.45;nan;95507.09;5026377;28;20203;-69
2022/09/07 01:12:51;;;;;;;3.00;2.65;;;;;;;16.37;nan;95501.50;5029024;28;20307;-69
2022/09/07 01:15:19;;;;;;;5.45;4.10;;;;;;;16.26;nan;95492.59;5029099;28;20427;-69
2022/09/07 01:17:59;;;;;;;3.60;3.05;;;;;;;16.48;nan;95501.81;5029781;28;20214;-71
2022/09/07 01:20:50;;;;;;;3.55;3.20;;;;;;;16.66;nan;95504.31;5028548;28;20206;-69
2022/09/07 01:23:53;;;;;;;3.30;3.10;;;;;;;16.63;nan;95503.59;5025069;28;20304;-69
2022/09/07 01:26:42;;;;;;;3.03;2.72;;;;;;;16.65;nan;95497.53;5029035;28;20287;-69
2022/09/07 01:29:16;;;;;;;3.95;3.47;;;;;;;16.60;nan;95493.47;5027482;28;20207;-69
2022/09/07 01:31:56;;;;;;;3.40;3.13;;;;;;;16.54;nan;95494.66;5028620;28;20283;-69
2022/09/07 01:34:24;;;;;;;3.75;3.35;;;;;;;16.50;nan;95497.44;5029494;28;20252;-69
2022/09/07 01:37:00;;;;;;;4.55;3.35;;;;;;;16.57;nan;95494.50;5028350;28;20833;-70
2022/09/07 01:39:35;;;;;;;4.90;4.50;;;;;;;16.50;nan;95497.44;5029562;28;20311;-69
2022/09/07 01:42:06;;;;;;;6.07;3.85;;;;;;;16.53;nan;95497.28;5028544;28;20261;-70
2022/09/07 01:44:39;;;;;;;4.60;3.60;;;;;;;16.43;nan;95493.50;5030945;28;20206;-70
2022/09/07 01:47:12;;;;;;;4.35;3.60;;;;;;;16.42;nan;95496.97;5029490;28;20210;-69
2022/09/07 01:49:43;;;;;;;4.30;4.10;;;;;;;16.37;nan;95506.63;5029103;28;20261;-69
2022/09/07 01:52:17;;;;;;;3.88;3.58;;;;;;;16.33;nan;95504.22;5030345;28;20254;-70
2022/09/07 01:54:51;;;;;;;5.07;3.97;;;;;;;16.01;nan;95504.97;5028971;28;20266;-69
2022/09/07 01:57:24;;;;;;;4.75;3.42;;;;;;;16.19;nan;95496.38;5029552;28;20676;-69
2022/09/07 01:59:58;;;;;;;4.93;4.32;;;;;;;16.25;nan;95497.81;5029317;28;20336;-69
2022/09/07 02:02:29;;;;;;;4.80;3.88;;;;;;;16.01;nan;95497.25;5029621;28;20901;-69
2022/09/07 02:05:04;;;;;;;8.68;4.72;;;;;;;15.86;nan;95495.41;5029541;28;20699;-69
2022/09/07 02:07:36;;;;;;;4.68;4.35;;;;;;;15.76;nan;95483.94;5028021;28;20318;-69
2022/09/07 02:10:10;;;;;;;7.05;3.83;;;;;;;16.02;nan;95485.28;5026712;28;20246;-68
2022/09/07 02:12:41;;;;;;;4.75;4.20;;;;;;;15.96;nan;95494.09;5029046;28;20242;-71
2022/09/07 02:15:13;;;;;;;4.90;4.60;;;;;;;16.08;nan;95490.94;5029169;28;20580;-70
2022/09/07 02:17:43;;;;;;;5.20;4.75;;;;;;;16.16;nan;95491.38;5028300;28;20217;-70
2022/09/07 02:20:13;;;;;;;5.95;4.55;;;;;;;15.51;nan;95490.19;5028503;28;20209;-70
2022/09/07 02:22:43;;;;;;;6.43;4.97;;;;;;;15.59;nan;95493.22;5029617;28;20239;-70
2022/09/07 02:25:14;;;;;;;5.60;5.10;;;;;;;15.04;nan;95492.31;5029539;28;20264;-70
2022/09/07 02:27:45;;;;;;;6.10;5.50;;;;;;;14.92;nan;95487.72;5029348;28;20230;-68
2022/09/07 02:30:16;;;;;;;5.82;5.43;;;;;;;15.11;nan;95495.41;5029511;28;20194;-68
2022/09/07 02:32:43;;;;;;;5.20;4.80;;;;;;;15.34;nan;95487.56;5029361;28;20230;-70
2022/09/07 02:35:10;;;;;;;5.82;4.97;;;;;;;15.13;nan;95488.50;5029230;28;22166;-69
2022/09/07 02:37:38;;;;;;;7.50;5.47;;;;;;;14.95;nan;95482.47;5028162;28;20707;-69
2022/09/07 02:40:07;;;;;;;6.00;5.60;;;;;;;15.06;nan;95484.59;5029508;28;20202;-69
2022/09/07 02:42:35;;;;;;;7.50;5.35;;;;;;;15.01;nan;95486.50;5029692;28;20213;-69
2022/09/07 02:45:05;;;;;;;7.90;5.10;;;;;;;15.11;nan;95486.00;5029230;28;20279;-69
2022/09/07 02:47:49;;;;;;;6.68;4.93;;;;;;;15.35;nan;95484.09;5027904;28;20206;-69
2022/09/07 02:50:28;;;;;;;5.75;5.30;;;;;;;15.48;nan;95490.31;5030344;28;20262;-69
2022/09/07 02:53:10;;;;;;;5.70;5.13;;;;;;;15.53;nan;95490.13;5028593;28;20738;-69
2022/09/07 02:55:46;;;;;;;6.13;5.35;;;;;;;15.31;nan;95492.81;5028398;28;20272;-69
2022/09/07 02:58:26;;;;;;;7.53;5.15;;;;;;;15.31;nan;95493.66;5028679;28;20770;-70
2022/09/07 03:01:01;;;;;;;6.55;6.05;;;;;;;15.40;nan;95500.06;5027922;28;20229;-70
2022/09/07 03:03:42;;;;;;;5.82;5.47;;;;;;;15.24;nan;95496.56;5029437;28;20202;-71
2022/09/07 03:06:17;;;;;;;8.40;6.00;;;;;;;15.30;nan;95496.28;5029939;28;20233;-69
2022/09/07 03:08:48;;;;;;;11.23;5.57;;;;;;;15.43;nan;95497.38;5028392;28;20965;-69
2022/09/07 03:11:16;;;;;;;6.70;6.10;;;;;;;15.31;nan;95496.22;5029225;28;20198;-70
2022/09/07 03:13:43;;;;;;;6.13;5.30;;;;;;;15.42;nan;95489.75;5030072;28;20322;-69
2022/09/07 03:16:12;;;;;;;5.95;5.45;;;;;;;15.42;nan;95490.59;5028571;28;20206;-70
2022/09/07 03:18:42;;;;;;;8.43;5.45;;;;;;;15.45;nan;95484.50;5028113;28;20579;-69
2022/09/07 03:21:08;;;;;;;6.75;6.13;;;;;;;15.36;nan;95485.75;5029154;28;20279;-70
2022/09/07 03:23:36;;;;;;;6.40;5.75;;;;;;;15.38;nan;95489.06;5029591;28;20299;-70
2022/09/07 03:26:03;;;;;;;6.78;5.20;;;;;;;15.53;nan;95493.50;5032622;28;20217;-69
2022/09/07 03:28:30;;;;;;;6.13;5.60;;;;;;;15.46;nan;95504.09;5033665;28;20222;-70
2022/09/07 03:30:56;;;;;;;6.35;5.80;;;;;;;15.52;nan;95496.97;5032822;28;20248;-70
2022/09/07 03:33:23;;;;;;;9.80;5.88;;;;;;;15.41;nan;95506.03;5032071;28;20782;-70
2022/09/07 03:36:00;;;;;;;7.60;6.72;;;;;;;15.21;nan;95504.38;5032495;28;20311;-69
2022/09/07 03:38:26;;;;;;;6.53;5.82;;;;;;;15.00;nan;95507.88;5033098;28;20360;-70
2022/09/07 03:41:00;;;;;;;6.97;6.47;;;;;;;15.07;nan;95505.00;5031550;28;20241;-69
2022/09/07 03:43:28;;;;;;;8.38;6.35;;;;;;;14.90;nan;95512.56;5033744;28;20202;-70
2022/09/07 03:45:58;;;;;;;6.88;5.68;;;;;;;14.86;nan;95511.03;5032203;28;20246;-69
2022/09/07 03:48:25;;;;;;;6.97;6.35;;;;;;;15.00;nan;95508.72;5032590;28;20659;-69
2022/09/07 03:51:01;;;;;;;7.05;6.35;;;;;;;15.07;nan;95511.84;5030354;28;20217;-69
2022/09/07 03:53:31;;;;;;;6.80;5.90;;;;;;;15.14;nan;95511.47;5031457;28;20234;-69
2022/09/07 03:55:59;;;;;;;7.38;5.85;;;;;;;15.17;nan;95515.63;5031864;28;20206;-69
2022/09/07 03:58:29;;;;;;;12.27;6.88;;;;;;;15.14;nan;95511.47;5032302;28;20264;-69
2022/09/07 04:00:55;;;;;;;36.45;22.50;;;;;;;14.95;nan;95516.59;5030385;28;20676;-69
2022/09/07 04:03:22;;;;;;;11.43;10.27;;;;;;;14.74;nan;95512.38;5032630;28;21988;-69
2022/09/07 04:05:49;;;;;;;13.60;7.35;;;;;;;14.67;nan;95520.38;5031623;28;20283;-70
2022/09/07 04:08:17;;;;;;;10.32;6.47;;;;;;;14.71;nan;95517.63;5031474;28;20684;-70
2022/09/07 04:10:44;;;;;;;7.78;6.57;;;;;;;14.79;nan;95522.44;5031271;28;20214;-70
2022/09/07 04:13:11;;;;;;;10.23;7.28;;;;;;;15.02;nan;95521.44;5032185;28;20225;-72
2022/09/07 04:15:37;;;;;;;39.42;21.73;;;;;;;14.93;nan;95523.50;5032080;28;22295;-70
2022/09/07 04:18:04;;;;;;;23.63;11.95;;;;;;;14.94;nan;95521.78;5031817;28;20719;-69
2022/09/07 04:20:31;;;;;;;11.65;9.70;;;;;;;14.87;nan;95523.75;5030523;28;20249;-70
2022/09/07 04:22:58;;;;;;;8.32;7.28;;;;;;;14.68;nan;95522.88;5032304;28;20962;-71
2022/09/07 04:25:26;;;;;;;8.35;7.40;;;;;;;14.68;nan;95525.44;5032533;28;20264;-70
2022/09/07 04:27:53;;;;;;;7.13;6.43;;;;;;;14.86;nan;95526.38;5032101;28;20207;-70
2022/09/07 04:30:19;;;;;;;7.35;6.68;;;;;;;14.98;nan;95524.13;5031276;28;20206;-69
2022/09/07 04:32:47;;;;;;;13.98;6.90;;;;;;;15.14;nan;95526.00;5031281;28;20275;-70
2022/09/07 04:35:14;;;;;;;10.45;7.38;;;;;;;14.84;nan;95526.47;5031449;28;20209;-70
2022/09/07 04:37:41;;;;;;;27.08;16.42;;;;;;;14.77;nan;95521.66;5031159;28;20347;-70
2022/09/07 04:40:09;;;;;;;13.10;10.45;;;;;;;15.19;nan;95527.47;5031763;28;20202;-70
2022/09/07 04:42:37;;;;;;;17.15;10.30;;;;;;;15.13;nan;95529.47;5030134;28;20210;-69
2022/09/07 04:45:05;;;;;;;12.18;7.57;;;;;;;15.26;nan;95530.59;5030933;28;20236;-69
2022/09/07 04:47:32;;;;;;;13.45;7.70;;;;;;;15.69;nan;95526.13;5031571;28;20234;-69
2022/09/07 04:49:58;;;;;;;36.30;21.50;;;;;;;15.91;nan;95529.34;5029063;28;20264;-69
2022/09/07 04:52:25;;;;;;;23.58;16.13;;;;;;;15.52;nan;95532.84;5032020;28;20225;-69
2022/09/07 04:54:52;;;;;;;15.02;10.07;;;;;;;15.90;nan;95533.66;5028018;28;20265;-69
2022/09/07 04:57:20;;;;;;;12.70;6.82;;;;;;;16.18;nan;95540.03;5031334;28;20711;-71
2022/09/07 04:59:48;;;;;;;12.63;6.90;;;;;;;16.40;nan;95542.38;5031123;28;20210;-70
2022/09/07 05:02:15;;;;;;;8.30;6.50;;;;;;;16.81;nan;95543.78;5031603;28;21359;-69
2022/09/07 05:04:42;;;;;;;8.60;6.63;;;;;;;17.07;nan;95551.91;5032467;28;20210;-69
2022/09/07 05:07:09;;;;;;;7.47;6.60;;;;;;;17.25;nan;95546.66;5028033;28;20527;-69
2022/09/07 05:09:36;;;;;;;7.07;6.57;;;;;;;17.30;nan;95544.69;5031881;28;20652;-68
2022/09/07 05:12:03;;;;;;;6.13;5.57;;;;;;;17.68;nan;95552.13;5034309;28;20211;-69
2022/09/07 05:14:31;;;;;;;9.40;5.75;;;;;;;18.06;nan;95552.63;5031007;28;20232;-69
2022/09/07 05:16:59;;;;;;;11.13;5.93;;;;;;;18.62;nan;95540.91;5030895;28;20688;-68
2022/09/07 05:19:26;;;;;;;6.00;5.38;;;;;;;20.18;nan;95546.00;5030324;28;20210;-68
2022/09/07 05:21:53;;;;;;;5.90;5.47;;;;;;;21.95;nan;95539.31;5030630;28;20691;-69
2022/09/07 05:24:20;;;;;;;5.95;5.10;;;;;;;22.89;nan;95534.22;5029958;28;20203;-69
2022/09/07 05:26:46;;;;;;;7.55;6.13;;;;;;;24.40;nan;95537.13;5030006;28;21681;-70
2022/09/07 05:29:13;;;;;;;10.70;4.88;;;;;;;26.20;nan;95526.28;5029348;28;20214;-69
2022/09/07 05:31:40;;;;;;;13.45;5.03;;;;;;;28.01;nan;95509.59;5030087;28;20213;-70
2022/09/07 05:34:09;;;;;;;8.82;4.78;;;;;;;28.83;nan;95519.91;5028889;28;20253;-69
2022/09/07 05:36:36;;;;;;;13.85;5.28;;;;;;;28.89;nan;95523.69;5029962;28;21227;-69
2022/09/07 05:39:05;;;;;;;12.38;5.10;;;;;;;29.94;nan;95513.00;5030624;28;20229;-70
2022/09/07 05:41:31;;;;;;;6.13;5.00;;;;;;;29.37;nan;95512.72;5029552;28;20311;-70
2022/09/07 05:43:58;;;;;;;9.77;5.30;;;;;;;29.37;nan;95512.72;5029282;28;21728;-69
2022/09/07 05:46:25;;;;;;;6.10;5.28;;;;;;;30.36;nan;95516.41;5030297;28;20206;-70
2022/09/07 05:48:52;;;;;;;12.25;6.15;;;;;;;30.50;nan;95512.31;5030728;28;20363;-68
2022/09/07 05:51:20;;;;;;;9.93;6.03;;;;;;;31.23;nan;95514.16;5029639;28;20559;-68
2022/09/07 05:53:47;;;;;;;7.20;5.45;;;;;;;31.52;nan;95508.34;5030178;28;20261;-68
2022/09/07 05:56:15;;;;;;;5.82;5.10;;;;;;;31.18;nan;95506.78;5029797;28;20289;-69
2022/09/07 05:58:41;;;;;;;6.75;5.18;;;;;;;29.58;nan;95515.00;5030863;28;20671;-70
2022/09/07 06:01:10;;;;;;;5.70;4.63;;;;;;;30.95;nan;95513.66;5029997;28;20233;-69
2022/09/07 06:03:39;;;;;;;6.28;5.03;;;;;;;33.17;nan;95506.19;5029684;28;20561;-69
2022/09/07 06:06:10;;;;;;;8.52;4.68;;;;;;;32.17;nan;95508.91;5028869;28;20303;-69
2022/09/07 06:08:39;;;;;;;9.82;4.68;;;;;;;31.48;nan;95514.91;5029739;28;20198;-68
2022/09/07 06:11:07;;;;;;;4.75;3.03;;;;;;;31.08;nan;95509.56;5031251;28;20206;-69
2022/09/07 06:13:34;;;;;;;8.43;3.55;;;;;;;30.77;nan;95508.59;5029425;28;20253;-69
2022/09/07 06:16:01;;;;;;;6.15;3.42;;;;;;;30.66;nan;95511.56;5029072;28;20321;-69
2022/09/07 06:18:30;;;;;;;7.13;3.15;;;;;;;30.93;nan;95513.03;5030905;28;20255;-69
2022/09/07 06:21:01;;;;;;;5.35;4.53;;;;;;;30.33;nan;95510.66;5029377;28;20210;-69
2022/09/07 06:23:28;;;;;;;3.90;3.03;;;;;;;30.81;nan;95515.16;5030667;28;20194;-69
2022/09/07 06:25:56;;;;;;;12.65;4.72;;;;;;;29.94;nan;95515.63;5029432;28;20639;-69
2022/09/07 06:28:27;;;;;;;6.65;3.05;;;;;;;30.55;nan;95515.28;5028785;28;20761;-69
2022/09/07 06:30:59;;;;;;;5.72;3.25;;;;;;;30.82;nan;95518.59;5030083;28;20197;-69
2022/09/07 06:33:25;;;;;;;8.82;2.72;;;;;;;32.86;nan;95517.69;5029142;28;20237;-70
2022/09/07 06:35:56;;;;;;;5.70;2.85;;;;;;;33.45;nan;95525.69;5029646;28;20206;-69
2022/09/07 06:38:23;;;;;;;4.00;2.97;;;;;;;31.86;nan;95521.22;5029141;28;20207;-69
2022/09/07 06:40:50;;;;;;;7.85;2.85;;;;;;;30.97;nan;95520.38;5030163;28;20234;-69
2022/09/07 06:43:18;;;;;;;3.53;2.70;;;;;;;32.20;nan;95515.59;5029330;28;20916;-69
2022/09/07 06:45:51;;;;;;;3.80;2.38;;;;;;;32.18;nan;95518.41;5027986;28;20202;-70
2022/09/07 06:48:18;;;;;;;4.03;2.25;;;;;;;32.63;nan;95522.13;5029495;28;20705;-70
2022/09/07 06:50:45;;;;;;;2.95;2.45;;;;;;;31.92;nan;95525.81;5029616;28;20552;-71
2022/09/07 06:53:11;;;;;;;3.08;2.08;;;;;;;31.75;nan;95528.47;5029659;28;20254;-69
2022/09/07 06:55:43;;;;;;;2.97;2.78;;;;;;;32.65;nan;95528.03;5028670;28;20828;-70
2022/09/07 06:58:10;;;;;;;5.80;3.17;;;;;;;32.86;nan;95524.75;5029684;28;20206;-69
2022/09/07 07:00:38;;;;;;;4.50;2.90;;;;;;;34.00;nan;95532.34;5033587;28;20198;-71
2022/09/07 07:03:05;;;;;;;10.57;3.40;;;;;;;34.17;nan;95535.56;5033263;28;20241;-69
2022/09/07 07:05:31;;;;;;;6.00;2.53;;;;;;;33.52;nan;95531.88;5032203;28;20741;-69
2022/09/07 07:07:58;;;;;;;3.13;2.47;;;;;;;34.02;nan;95538.25;5032655;28;20206;-69
2022/09/07 07:10:25;;;;;;;5.03;2.65;;;;;;;35.26;nan;95534.44;5033801;28;20202;-69
2022/09/07 07:12:55;;;;;;;4.45;2.25;;;;;;;35.35;nan;95533.34;5032480;28;20649;-68
2022/09/07 07:15:22;;;;;;;4.68;2.80;;;;;;;35.36;nan;95534.97;5033682;28;20202;-69
2022/09/07 07:17:50;;;;;;;3.13;1.90;;;;;;;34.66;nan;95533.91;5033470;28;20275;-70
2022/09/07 07:20:17;;;;;;;4.68;2.47;;;;;;;34.11;nan;95537.16;5033308;28;20226;-69
2022/09/07 07:22:44;;;;;;;5.50;3.47;;;;;;;34.16;nan;95528.66;5032951;28;20202;-68
2022/09/07 07:25:10;;;;;;;2.25;2.15;;;;;;;33.59;nan;95521.44;5032879;28;20198;-70
2022/09/07 07:27:37;;;;;;;4.97;2.45;;;;;;;32.33;nan;95529.88;5032676;28;20692;-69
2022/09/07 07:30:05;;;;;;;5.68;3.05;;;;;;;33.11;nan;95529.63;5032182;28;20210;-68
2022/09/07 07:32:32;;;;;;;4.93;2.60;;;;;;;33.56;nan;95532.34;5032309;28;20594;-69
2022/09/07 07:35:00;;;;;;;2.30;2.10;;;;;;;33.89;nan;95538.09;5032008;28;20219;-69
2022/09/07 07:37:27;;;;;;;4.63;4.13;;;;;;;33.26;nan;95542.00;5031034;28;23052;-68
2022/09/07 07:39:53;;;;;;;2.47;2.38;;;;;;;33.41;nan;95530.50;5032259;28;20271;-68
2022/09/07 07:42:20;;;;;;;3.15;2.85;;;;;;;33.82;nan;95535.38;5033387;28;20210;-69
2022/09/07 07:44:47;;;;;;;2.35;2.15;;;;;;;34.03;nan;95538.06;5033599;28;20206;-68
2022/09/07 07:47:14;;;;;;;4.70;2.80;;;;;;;32.64;nan;95527.22;5031793;28;20209;-69
2022/09/07 07:49:40;;;;;;;2.88;2.33;;;;;;;30.79;nan;95533.69;5033275;28;20225;-68
2022/09/07 07:52:08;;;;;;;5.53;3.78;;;;;;;29.73;nan;95534.38;5032819;28;20590;-68
2022/09/07 07:54:36;;;;;;;3.47;2.95;;;;;;;29.29;nan;95531.81;5032491;28;20245;-67
2022/09/07 07:57:04;;;;;;;4.88;2.67;;;;;;;29.26;nan;95533.91;5031166;28;20699;-68
2022/09/07 07:59:30;;;;;;;4.05;2.40;;;;;;;29.00;nan;95539.97;5032429;28;21056;-68
2022/09/07 08:02:02;;;;;;;3.20;2.30;;;;;;;29.32;nan;95535.94;5033881;28;20227;-69
2022/09/07 08:04:29;;;;;;;4.68;3.15;;;;;;;30.10;nan;95532.25;5032528;28;20205;-68
2022/09/07 08:06:56;;;;;;;7.00;3.42;;;;;;;30.64;nan;95532.72;5030681;28;20629;-68
2022/09/07 08:09:24;;;;;;;4.85;2.53;;;;;;;30.50;nan;95535.09;5029648;28;20238;-68
2022/09/07 08:11:51;;;;;;;3.58;3.28;;;;;;;29.85;nan;95533.13;5032153;28;20590;-69
2022/09/07 08:14:18;;;;;;;4.72;3.25;;;;;;;28.60;nan;95534.38;5032760;28;20732;-68
2022/09/07 08:16:45;;;;;;;7.25;2.30;;;;;;;28.22;nan;95538.09;5031098;28;20219;-69
2022/09/07 08:19:12;;;;;;;7.47;3.65;;;;;;;27.77;nan;95533.63;5031476;28;20213;-69
2022/09/07 08:21:39;;;;;;;3.45;2.55;;;;;;;27.39;nan;95529.38;5031713;28;20206;-69
2022/09/07 08:24:06;;;;;;;2.88;2.70;;;;;;;27.53;nan;95526.28;5032369;28;20707;-68
2022/09/07 08:26:34;;;;;;;4.40;3.75;;;;;;;27.75;nan;95520.72;5031020;28;20348;-69
2022/09/07 08:29:01;;;;;;;5.18;3.33;;;;;;;27.03;nan;95523.97;5031521;28;20203;-68
2022/09/07 08:31:27;;;;;;;6.03;3.22;;;;;;;27.23;nan;95521.31;5031916;28;20268;-69
2022/09/07 08:33:54;;;;;;;7.93;3.35;;;;;;;27.28;nan;95526.94;5031108;28;20727;-69
2022/09/07 08:36:21;;;;;;;2.80;2.60;;;;;;;27.26;nan;95521.03;5030871;28;20199;-69
2022/09/07 08:38:48;;;;;;;3.72;3.20;;;;;;;27.42;nan;95521.28;5029165;28;20589;-69
2022/09/07 08:41:42;;;;;;;4.60;3.10;;;;;;;26.91;nan;95522.47;5029528;28;20864;-69
2022/09/07 08:44:13;;;;;;;7.07;4.15;;;;;;;26.78;nan;95504.50;5028841;28;20293;-68
2022/09/07 08:46:45;;;;;;;12.50;7.50;;;;;;;26.43;nan;95507.69;5027390;28;20299;-68
2022/09/07 08:49:19;;;;;;;5.35;3.08;;;;;;;26.23;nan;95511.19;5028821;28;20287;-68
2022/09/07 08:51:49;;;;;;;2.97;2.78;;;;;;;25.87;nan;95510.03;5031319;28;20202;-69
2022/09/07 08:54:16;;;;;;;4.25;3.28;;;;;;;25.79;nan;95511.66;5030423;28;20999;-68
2022/09/07 08:56:47;;;;;;;4.68;2.60;;;;;;;25.81;nan;95504.53;5031275;28;20207;-69
2022/09/07 08:59:20;;;;;;;3.60;2.90;;;;;;;25.67;nan;95492.72;5029425;28;20206;-68
2022/09/07 09:01:46;;;;;;;5.55;3.42;;;;;;;25.57;nan;95495.25;5030446;28;20202;-69
2022/09/07 09:04:18;;;;;;;4.00;3.45;;;;;;;25.34;nan;95491.22;5030341;28;20199;-68
2022/09/07 09:06:59;;;;;;;5.07;3.33;;;;;;;25.20;nan;95488.97;5028921;28;20229;-68
2022/09/07 09:09:35;;;;;;;5.88;3.30;;;;;;;25.70;nan;95493.28;5027596;28;20234;-69
2022/09/07 09:12:15;;;;;;;5.63;3.50;;;;;;;25.81;nan;95489.75;5028801;28;20641;-68
2022/09/07 09:14:59;;;;;;;3.15;2.90;;;;;;;26.00;nan;95481.97;5030317;28;20241;-68
2022/09/07 09:17:32;;;;;;;3.65;3.35;;;;;;;26.02;nan;95477.44;5029162;28;20775;-68
2022/09/07 09:20:12;;;;;;;4.53;3.30;;;;;;;26.23;nan;95479.13;5030317;28;20210;-68
2022/09/07 09:22:39;;;;;;;7.63;3.35;;;;;;;26.25;nan;95478.00;5029235;28;20239;-68
2022/09/07 09:25:18;;;;;;;4.90;3.38;;;;;;;26.17;nan;95470.06;5029386;28;20272;-68
2022/09/07 09:27:46;;;;;;;3.72;3.25;;;;;;;26.21;nan;95474.06;5029211;28;20221;-69
2022/09/07 09:30:15;;;;;;;4.03;3.08;;;;;;;26.50;nan;95465.41;5028949;28;20783;-68
2022/09/07 09:32:44;;;;;;;3.30;3.10;;;;;;;25.95;nan;95472.94;5029505;28;20263;-69
2022/09/07 09:35:14;;;;;;;6.25;3.28;;;;;;;25.77;nan;95463.16;5028643;28;20226;-69
2022/09/07 09:37:42;;;;;;;3.72;3.42;;;;;;;25.84;nan;95465.22;5027704;28;20213;-69
2022/09/07 09:40:19;;;;;;;11.77;8.32;;;;;;;25.93;nan;95464.44;5028186;28;20234;-69
2022/09/07 09:42:57;;;;;;;3.90;3.33;;;;;;;25.45;nan;95462.50;5028977;28;20213;-70
2022/09/07 09:45:27;;;;;;;3.42;3.17;;;;;;;25.80;nan;95456.03;5027499;28;20688;-68
2022/09/07 09:47:54;;;;;;;6.07;5.00;;;;;;;26.32;nan;95457.47;5027249;28;20247;-71
2022/09/07 09:50:24;;;;;;;7.57;4.60;;;;;;;26.41;nan;95454.88;5028373;28;20214;-70
2022/09/07 09:52:52;;;;;;;7.97;3.42;;;;;;;25.93;nan;95457.44;5025936;28;20237;-70
2022/09/07 09:55:25;;;;;;;3.45;3.25;;;;;;;25.75;nan;95459.84;5026045;28;20238;-70
2022/09/07 09:57:57;;;;;;;4.57;3.63;;;;;;;25.71;nan;95455.91;5025995;28;20709;-71
2022/09/07 10:00:25;;;;;;;4.60;3.00;;;;;;;25.95;nan;95449.50;5026683;28;20210;-69
2022/09/07 10:03:04;;;;;;;3.75;3.13;;;;;;;25.83;nan;95447.94;5025028;28;20653;-69
2022/09/07 10:05:35;;;;;;;3.30;3.00;;;;;;;26.10;nan;95437.69;5024746;28;20226;-70
2022/09/07 10:08:05;;;;;;;3.63;3.20;;;;;;;26.13;nan;95434.81;5027708;28;20198;-70
2022/09/07 10:10:32;;;;;;;3.85;3.55;;;;;;;25.87;nan;95441.53;5030411;28;20580;-69
2022/09/07 10:13:00;;;;;;;4.65;3.95;;;;;;;25.28;nan;95429.28;5028518;28;20199;-70
2022/09/07 10:15:34;;;;;;;3.75;3.38;;;;;;;25.34;nan;95432.19;5028058;28;20238;-69
2022/09/07 10:18:04;;;;;;;4.50;4.20;;;;;;;25.45;nan;95423.47;5029332;28;20293;-69
2022/09/07 10:20:34;;;;;;;4.13;3.72;;;;;;;25.80;nan;95424.78;5029337;28;20225;-70
2022/09/07 10:23:02;;;;;;;4.75;3.63;;;;;;;26.16;nan;95415.50;5028677;28;22555;-69
2022/09/07 10:25:31;;;;;;;3.25;2.95;;;;;;;26.12;nan;95414.94;5028928;28;20218;-69
2022/09/07 10:28:14;;;;;;;5.80;3.95;;;;;;;25.37;nan;95412.91;5028723;28;20206;-70
2022/09/07 10:30:57;;;;;;;4.57;3.30;;;;;;;25.32;nan;95407.25;5029490;28;20692;-69
2022/09/07 10:33:30;;;;;;;7.70;3.17;;;;;;;25.65;nan;95406.16;5027577;28;20210;-68
2022/09/07 10:36:01;;;;;;;3.38;3.08;;;;;;;26.12;nan;95399.31;5028184;28;20696;-69
2022/09/07 10:38:32;;;;;;;3.20;3.00;;;;;;;26.19;nan;95395.22;5030005;28;20287;-68
2022/09/07 10:41:03;;;;;;;6.85;3.75;;;;;;;26.42;nan;95401.78;5029265;28;20206;-68
2022/09/07 10:43:42;;;;;;;3.97;3.05;;;;;;;26.51;nan;95397.50;5028920;28;20212;-69
2022/09/07 10:46:31;;;;;;;3.67;3.47;;;;;;;26.46;nan;95393.69;5028555;28;20817;-69
2022/09/07 10:49:11;;;;;;;3.60;3.08;;;;;;;26.39;nan;95386.44;5028694;28;20279;-69
2022/09/07 10:51:43;;;;;;;3.72;3.42;;;;;;;25.89;nan;95397.94;5029206;28;20763;-69
2022/09/07 10:54:21;;;;;;;3.45;2.85;;;;;;;25.59;nan;95394.44;5028486;28;20238;-69
2022/09/07 10:57:00;;;;;;;6.07;2.90;;;;;;;25.50;nan;95382.22;5028402;28;20347;-68
2022/09/07 10:59:50;;;;;;;3.40;3.10;;;;;;;25.61;nan;95387.34;5028976;28;20583;-69
2022/09/07 11:02:24;;;;;;;4.43;3.33;;;;;;;25.92;nan;95382.06;5028168;28;20206;-68
2022/09/07 11:05:01;;;;;;;4.05;3.53;;;;;;;26.15;nan;95374.78;5028835;28;20202;-70
2022/09/07 11:07:59;;;;;;;4.13;3.15;;;;;;;26.23;nan;95375.72;5025900;28;20225;-70
2022/09/07 11:10:37;;;;;;;3.42;3.22;;;;;;;26.24;nan;95377.34;5028290;28;20267;-69
2022/09/07 11:13:08;;;;;;;3.53;3.33;;;;;;;26.25;nan;95379.00;5030176;28;20433;-70
2022/09/07 11:15:43;;;;;;;8.93;3.50;;;;;;;26.47;nan;95364.06;5027952;28;20347;-69
2022/09/07 11:18:16;;;;;;;4.80;3.35;;;;;;;26.24;nan;95366.94;5027950;28;20271;-70
2022/09/07 11:20:49;;;;;;;4.35;3.65;;;;;;;26.04;nan;95360.09;5028623;28;20749;-70
2022/09/07 11:23:22;;;;;;;3.55;3.22;;;;;;;25.86;nan;95364.38;5027921;28;20329;-70
2022/09/07 11:25:58;;;;;;;3.72;3.03;;;;;;;25.61;nan;95358.69;5028674;28;20206;-69
2022/09/07 11:28:28;;;;;;;3.53;3.20;;;;;;;25.44;nan;95361.97;5028089;28;20290;-70
2022/09/07 11:31:00;;;;;;;3.40;3.10;;;;;;;25.87;nan;95358.19;5028902;28;20272;-71
2022/09/07 11:33:31;;;;;;;3.53;3.22;;;;;;;26.14;nan;95355.72;5028345;28;21505;-70
2022/09/07 11:36:02;;;;;;;6.55;3.45;;;;;;;26.36;nan;95352.84;5028158;28;20288;-69
2022/09/07 11:38:34;;;;;;;4.03;3.60;;;;;;;26.19;nan;95348.31;5026853;28;20779;-70
2022/09/07 11:41:18;;;;;;;3.20;3.00;;;;;;;25.89;nan;95356.28;5028373;28;20378;-68
2022/09/07 11:43:48;;;;;;;4.03;3.60;;;;;;;26.09;nan;95348.31;5028525;28;20631;-69
2022/09/07 11:46:23;;;;;;;2.95;2.75;;;;;;;26.16;nan;95343.38;5032121;28;20194;-70
2022/09/07 11:48:53;;;;;;;4.07;3.88;;;;;;;26.43;nan;95346.09;5032258;28;20213;-68
2022/09/07 11:51:25;;;;;;;4.28;3.85;;;;;;;26.28;nan;95342.25;5033860;28;20203;-70
2022/09/07 11:53:57;;;;;;;4.13;3.83;;;;;;;26.40;nan;95341.16;5031154;28;20266;-69
2022/09/07 11:56:29;;;;;;;3.42;3.22;;;;;;;26.12;nan;95346.41;5031558;28;20226;-69
2022/09/07 11:59:13;;;;;;;3.70;3.40;;;;;;;26.26;nan;95332.91;5031759;28;20353;-69
2022/09/07 12:01:53;;;;;;;4.13;3.53;;;;;;;26.65;nan;95331.09;5031698;28;20206;-69
2022/09/07 12:04:46;;;;;;;5.90;3.40;;;;;;;26.66;nan;95322.28;5032490;28;20211;-69